Have a Safe July 4th! 

Flight Track Log - Related Links

Times and Time Zones

All times are in EDT time to prevent confusion due to time zone crossing. See the TAM3711 flight status page for this flight to view local times or setup timezone preferences in your user account.

Time Position Orientation Groundspeed Altitude Reporting Facility
EDT Latitude Longitude Course Direction KTS MPH feet Rate Location/Type
Fri 06:33:21 AM -15.8690 -47.9190 309° West 11 13  Level FlightAware ADS-B
Fri 06:36:39 AM -15.8690 -47.9180 90° East 19 22 438 Level FlightAware ADS-B
Fri 06:37:05 AM -15.8690 -47.9170 90° East 22 25 594 Level FlightAware ADS-B
Fri 06:39:00 AM -16.0623 -47.8870 172° South  Level Estimated
Fri 06:40:00 AM -16.1515 -47.8731 171° South  Level Estimated
Fri 06:41:00 AM -16.2407 -47.8592 171° South  Level Estimated
Fri 06:42:00 AM -16.3300 -47.8452 171° South  Level Estimated
Fri 06:43:00 AM -16.4192 -47.8313 171° South  Level Estimated
Fri 06:44:00 AM -16.5085 -47.8174 171° South  Level Estimated
Fri 06:45:00 AM -16.5977 -47.8034 171° South  Level Estimated
Fri 06:45:55 AM -15.8860 -47.8670 116° Southeast 177 204 5,500  Level FlightAware ADS-B
Fri 06:46:07 AM -15.8960 -47.8630 159° South 205 236 5,600 750 Climbing FlightAware ADS-B
Fri 06:46:19 AM -15.9080 -47.8620 175° South 224 258 5,800 698 Climbing FlightAware ADS-B
Fri 06:46:50 AM -15.9430 -47.8650 185° South 271 312 6,100 1,100 Climbing FlightAware ADS-B
Fri 06:47:19 AM -15.9810 -47.8690 186° South 299 344 6,900 2,182 Climbing FlightAware ADS-B
Fri 06:47:45 AM -16.0190 -47.8720 184° South 302 348 8,100 2,857 Climbing FlightAware ADS-B
Fri 06:48:01 AM -16.0410 -47.8740 185° South 303 349 8,900 2,700 Climbing FlightAware ADS-B
Fri 06:48:25 AM -16.0750 -47.8770 185° South 306 352 9,900 2,818 Climbing FlightAware ADS-B
Fri 06:49:07 AM -16.1330 -47.8810 184° South 300 345 12,000 1,958 Climbing FlightAware ADS-B
Fri 06:50:00 AM -16.2060 -47.8860 184° South 335 386 13,000 1,556 Climbing FlightAware ADS-B
Fri 06:50:55 AM -16.3040 -47.8940 184° South 368 423 14,800 2,533 Climbing FlightAware ADS-B
Fri 06:51:30 AM -16.3610 -47.8990 185° South 348 400 16,800 2,400 Climbing FlightAware ADS-B
Fri 06:52:15 AM -16.4320 -47.9040 184° South 362 417 18,000 792 Climbing FlightAware ADS-B
Fri 06:53:16 AM -16.5230 -47.9050 181° South 366 421 18,200 124 Climbing FlightAware ADS-B
Fri 06:53:52 AM -16.5740 -47.9050 180° South 366 421 18,200 2,526 Level FlightAware ADS-B
Fri 06:54:32 AM -16.6600 -47.8860 168° South 366 421 21,400 2,182 Climbing FlightAware ADS-B
Fri 06:55:20 AM -16.7290 -47.8860 180° South 366 421 21,400  Level FlightAware ADS-B
Fri 06:55:57 AM -16.7820 -47.8860 180° South 366 421 21,400  Level FlightAware ADS-B
Fri 06:56:34 AM -16.8350 -47.8860 180° South 366 421 21,400  Level FlightAware ADS-B
Fri 06:57:13 AM -16.8920 -47.8860 180° South 366 421 21,400  Level FlightAware ADS-B
Fri 06:58:01 AM -16.9610 -47.8860 180° South 366 421 21,400 3,808 Level FlightAware ADS-B
Fri 06:58:57 AM -17.1450 -47.8260 163° South 397 457 28,000 4,727 Climbing FlightAware ADS-B
Fri 06:59:40 AM -17.2340 -47.8170 174° South 404 465 29,200 1,239 Climbing FlightAware ADS-B
Fri 07:00:29 AM -17.3110 -47.8080 174° South 405 466 29,900 1,085 Climbing FlightAware ADS-B
Fri 07:01:14 AM -17.4060 -47.7980 174° South 403 464 30,900 2,207 Climbing FlightAware ADS-B
Fri 07:01:56 AM -17.4820 -47.7890 174° South 367 422 33,100 1,829 Climbing FlightAware ADS-B
Fri 07:02:36 AM -17.5500 -47.7820 174° South 374 430 33,400 585 Climbing FlightAware ADS-B
Fri 07:03:18 AM -17.6260 -47.7870 184° South 381 438 33,900 714 Climbing FlightAware ADS-B
Fri 07:04:00 AM -17.6980 -47.7930 185° South 382 440 34,400 805 Climbing FlightAware ADS-B
Fri 07:04:40 AM -17.7680 -47.7990 185° South 380 437 35,000 1,047 Climbing FlightAware ADS-B
Fri 07:05:26 AM -17.8490 -47.8050 184° South 370 426 35,900 690 Climbing FlightAware ADS-B
Fri 07:06:07 AM -17.9210 -47.8110 185° South 380 437 36,000 82 Climbing FlightAware ADS-B
Fri 07:06:39 AM -17.9760 -47.8160 185° South 383 441 36,000  Level FlightAware ADS-B
Fri 07:07:25 AM -18.0540 -47.8220 184° South 381 438 36,000  Level FlightAware ADS-B
Fri 07:08:05 AM -18.1290 -47.8280 184° South 381 438 36,000  Level FlightAware ADS-B
Fri 07:08:37 AM -18.1840 -47.8330 185° South 381 438 36,000  Level FlightAware ADS-B
Fri 07:09:23 AM -18.2640 -47.8400 185° South 381 438 36,000  Level FlightAware ADS-B
Fri 07:10:05 AM -18.3410 -47.8460 184° South 380 437 36,000  Level FlightAware ADS-B
Fri 07:10:41 AM -18.4030 -47.8510 184° South 381 438 36,000  Level FlightAware ADS-B
Fri 07:10:57 AM -18.4320 -47.8530 184° South 381 438 36,000  Level FlightAware ADS-B
Fri 07:11:43 AM -18.5130 -47.8600 185° South 382 440 36,000  Level FlightAware ADS-B
Fri 07:12:29 AM -18.5940 -47.8670 185° South 383 441 36,000  Level FlightAware ADS-B
Fri 07:13:09 AM -18.6660 -47.8730 185° South 383 441 36,000  Level FlightAware ADS-B
Fri 07:13:50 AM -18.7360 -47.8790 185° South 383 441 36,000  Level FlightAware ADS-B
Fri 07:14:31 AM -18.8110 -47.8850 184° South 384 442 36,000  Level FlightAware ADS-B
Fri 07:15:09 AM -18.8780 -47.8900 184° South 383 441 36,000  Level FlightAware ADS-B
Fri 07:15:51 AM -18.9520 -47.8970 185° South 383 441 36,000  Level FlightAware ADS-B
Fri 07:16:31 AM -19.0230 -47.9030 185° South 384 442 36,000  Level FlightAware ADS-B
Fri 07:17:07 AM -19.0880 -47.9080 184° South 384 442 36,000  Level FlightAware ADS-B
Fri 07:17:50 AM -19.1630 -47.9140 184° South 383 441 36,000  Level FlightAware ADS-B
Fri 07:18:30 AM -19.2350 -47.9200 184° South 383 441 36,000  Level FlightAware ADS-B
Fri 07:19:14 AM -19.3130 -47.9270 185° South 382 440 36,000  Level FlightAware ADS-B
Fri 07:19:54 AM -19.3830 -47.9330 185° South 382 440 36,000  Level FlightAware ADS-B
Fri 07:20:40 AM -19.4640 -47.9390 184° South 382 440 36,000  Level FlightAware ADS-B
Fri 07:21:20 AM -19.5350 -47.9450 185° South 383 441 36,000  Level FlightAware ADS-B
Fri 07:21:56 AM -19.5990 -47.9510 185° South 383 441 36,000  Level FlightAware ADS-B
Fri 07:22:36 AM -19.6680 -47.9560 184° South 383 441 36,000  Level FlightAware ADS-B
Fri 07:23:17 AM -19.7420 -47.9630 185° South 384 442 36,000  Level FlightAware ADS-B
Fri 07:23:54 AM -19.8090 -47.9680 184° South 385 443 36,000  Level FlightAware ADS-B
Fri 07:24:38 AM -19.8850 -47.9750 185° South 386 444 36,000  Level FlightAware ADS-B
Fri 07:25:18 AM -19.9580 -47.9810 184° South 386 444 36,000  Level FlightAware ADS-B
Fri 07:26:02 AM -20.0380 -47.9880 185° South 386 444 36,000  Level FlightAware ADS-B
Fri 07:26:42 AM -20.1060 -47.9930 184° South 386 444 36,000  Level FlightAware ADS-B
Fri 07:27:22 AM -20.1780 -48.0000 185° South 386 444 36,000  Level FlightAware ADS-B
Fri 07:28:06 AM -20.2580 -48.0060 184° South 387 445 36,000  Level FlightAware ADS-B
Fri 07:28:42 AM -20.3200 -48.0120 185° South 387 445 36,000  Level FlightAware ADS-B
Fri 07:29:22 AM -20.3930 -48.0180 184° South 387 445 36,000  Level FlightAware ADS-B
Fri 07:30:26 AM -20.5100 -48.0280 185° South 388 447 36,000  Level FlightAware ADS-B
Fri 07:31:10 AM -20.5870 -48.0340 184° South 389 448 36,000  Level FlightAware ADS-B
Fri 07:31:48 AM -20.6560 -48.0400 185° South 389 448 36,000  Level FlightAware ADS-B
Fri 07:32:32 AM -20.7350 -48.0470 185° South 389 448 36,000  Level FlightAware ADS-B
Fri 07:33:14 AM -20.8100 -48.0530 184° South 390 449 36,000  Level FlightAware ADS-B
Fri 07:33:54 AM -20.8810 -48.0590 185° South 390 449 36,000  Level FlightAware ADS-B
Fri 07:34:38 AM -20.9610 -48.0660 185° South 391 450 36,000  Level FlightAware ADS-B
Fri 07:35:16 AM -21.0310 -48.0720 185° South 391 450 36,000  Level FlightAware ADS-B
Fri 07:35:55 AM -21.1020 -48.0780 185° South 391 450 36,000  Level FlightAware ADS-B
Fri 07:36:36 AM -21.1740 -48.0840 184° South 391 450 36,000  Level FlightAware ADS-B
Fri 07:37:21 AM -21.2580 -48.0920 185° South 389 448 36,000  Level FlightAware ADS-B
Fri 07:37:55 AM -21.3180 -48.0970 184° South 388 447 36,000  Level FlightAware ADS-B
Fri 07:38:35 AM -21.3890 -48.1030 184° South 387 445 36,000  Level FlightAware ADS-B
Fri 07:39:15 AM -21.4620 -48.1090 184° South 387 445 36,000  Level FlightAware ADS-B
Fri 07:39:59 AM -21.5400 -48.1160 185° South 387 445 36,000  Level FlightAware ADS-B
Fri 07:40:41 AM -21.6150 -48.1220 184° South 388 447 36,000  Level FlightAware ADS-B
Fri 07:41:35 AM -21.7080 -48.1180 178° South 384 442 36,000  Level FlightAware ADS-B
Fri 07:42:15 AM -21.7740 -48.0840 154° Southeast 394 453 36,000  Level FlightAware ADS-B
Fri 07:42:55 AM -21.8410 -48.0500 155° Southeast 392 451 36,000  Level FlightAware ADS-B
Fri 07:43:35 AM -21.9070 -48.0180 156° South 391 450 36,000  Level FlightAware ADS-B
Fri 07:44:15 AM -21.9720 -47.9850 155° Southeast 391 450 36,000  Level FlightAware ADS-B
Fri 07:44:56 AM -22.0390 -47.9510 155° Southeast 391 450 36,000 -75 Level FlightAware ADS-B
Fri 07:45:35 AM -22.1040 -47.9180 155° Southeast 393 452 35,900 -1,000 Descending FlightAware ADS-B
Fri 07:46:14 AM -22.1680 -47.8860 155° Southeast 376 433 34,700 -1,906 Descending FlightAware ADS-B
Fri 07:47:00 AM -22.2410 -47.8490 155° Southeast 373 429 33,200 -2,163 Descending FlightAware ADS-B
Fri 07:47:40 AM -22.3030 -47.8170 154° Southeast 371 427 31,600 -2,325 Descending FlightAware ADS-B
Fri 07:48:20 AM -22.3660 -47.7850 155° Southeast 362 417 30,100 -2,259 Descending FlightAware ADS-B
Fri 07:49:05 AM -22.4340 -47.7500 155° Southeast 370 426 28,400 -2,250 Descending FlightAware ADS-B
Fri 07:49:40 AM -22.4900 -47.7220 155° Southeast 362 417 27,100 -2,250 Descending FlightAware ADS-B
Fri 07:50:25 AM -22.5580 -47.6880 155° Southeast 371 427 25,400 -2,214 Descending FlightAware ADS-B
Fri 07:51:04 AM -22.6180 -47.6570 155° Southeast 372 428 24,000 -2,160 Descending FlightAware ADS-B
Fri 07:51:40 AM -22.6770 -47.6270 155° Southeast 372 428 22,700 -2,160 Descending FlightAware ADS-B
Fri 07:52:19 AM -22.7380 -47.5950 154° Southeast 361 415 21,300 -2,047 Descending FlightAware ADS-B
Fri 07:53:05 AM -22.8060 -47.5580 153° Southeast 357 411 19,800 -1,814 Descending FlightAware ADS-B
Fri 07:53:45 AM -22.8570 -47.5110 140° Southeast 348 400 18,700 -1,725 Descending FlightAware ADS-B
Fri 07:54:25 AM -22.9060 -47.4660 140° Southeast 340 391 17,500 -1,786 Descending FlightAware ADS-B
Fri 07:55:09 AM -22.9610 -47.4150 140° Southeast 342 394 16,200 -1,694 Descending FlightAware ADS-B
Fri 07:55:50 AM -23.0110 -47.3690 140° Southeast 346 398 15,100 -1,648 Descending FlightAware ADS-B
Fri 07:56:40 AM -23.0720 -47.3120 139° Southeast 342 394 13,700 -1,516 Descending FlightAware ADS-B
Fri 07:57:21 AM -23.1200 -47.2670 139° Southeast 324 373 12,800 -1,317 Descending FlightAware ADS-B
Fri 07:58:02 AM -23.1600 -47.2300 140° Southeast 318 366 11,900 -1,275 Descending FlightAware ADS-B
Fri 07:58:41 AM -23.2040 -47.1890 139° Southeast 310 357 11,100 -1,120 Descending FlightAware ADS-B
Fri 07:59:17 AM -23.2450 -47.1500 139° Southeast 304 350 10,500 -878 Descending FlightAware ADS-B
Fri 08:00:03 AM -23.2870 -47.1110 140° Southeast 304 350 9,900 -696 Descending FlightAware ADS-B
Fri 08:00:26 AM -23.3170 -47.0830 139° Southeast 303 349 9,700 -585 Descending FlightAware ADS-B
Fri 08:00:44 AM -23.3370 -47.0640 139° Southeast 304 350 9,500 -522 Descending FlightAware ADS-B
Fri 08:01:12 AM -23.3660 -47.0370 139° Southeast 306 352 9,300 -450 Descending FlightAware ADS-B
Fri 08:01:24 AM -23.3800 -47.0230 137° Southeast 306 352 9,200 -558 Descending FlightAware ADS-B
Fri 08:01:55 AM -23.4190 -46.9880 141° Southeast 306 352 8,900 -508 Descending FlightAware ADS-B
Fri 08:02:23 AM -23.4490 -46.9590 138° Southeast 306 352 8,700 -545 Descending FlightAware ADS-B
Fri 08:02:39 AM -23.4650 -46.9440 139° Southeast 305 351 8,500 -545 Descending FlightAware ADS-B
Fri 08:03:07 AM -23.4960 -46.9150 139° Southeast 301 346 8,300 -450 Descending FlightAware ADS-B
Fri 08:03:19 AM -23.5090 -46.9030 140° Southeast 298 343 8,200 -450 Descending FlightAware ADS-B
Fri 08:03:47 AM -23.5370 -46.8760 139° Southeast 295 339 8,000 -450 Descending FlightAware ADS-B
Fri 08:03:59 AM -23.5500 -46.8630 137° Southeast 287 330 7,900 -450 Descending FlightAware ADS-B
Fri 08:04:27 AM -23.5760 -46.8380 139° Southeast 268 308 7,700 -429 Descending FlightAware ADS-B
Fri 08:04:55 AM -23.6010 -46.8140 139° Southeast 252 290 7,500 -261 Descending FlightAware ADS-B
Fri 08:05:13 AM -23.6170 -46.7980 138° Southeast 249 287 7,500  Level FlightAware ADS-B
Fri 08:05:41 AM -23.6410 -46.7740 138° Southeast 251 289 7,500  Level FlightAware ADS-B
Fri 08:06:07 AM -23.6630 -46.7520 138° Southeast 250 288 7,500  Level FlightAware ADS-B
Fri 08:06:35 AM -23.6870 -46.7290 139° Southeast 250 288 7,500 -133 Level FlightAware ADS-B
Fri 08:06:52 AM -23.7010 -46.7140 136° Southeast 250 288 7,400 -933 Descending FlightAware ADS-B
Fri 08:07:20 AM -23.7250 -46.6910 139° Southeast 254 292 6,800 -1,154 Descending FlightAware ADS-B
Fri 08:07:44 AM -23.7480 -46.6690 139° Southeast 245 282 6,400 -1,038 Descending FlightAware ADS-B
Fri 08:08:12 AM -23.7690 -46.6480 138° Southeast 240 276 5,900 -727 Descending FlightAware ADS-B
Fri 08:08:50 AM -23.7930 -46.6160 129° Southeast 235 270 5,600 -783 Descending FlightAware ADS-B
Fri 08:09:21 AM -23.7800 -46.5800 68° East 220 253 5,000 -894 Descending FlightAware ADS-B
Fri 08:09:37 AM -23.7680 -46.5710 34° Northeast 204 235 4,900 -391 Descending FlightAware ADS-B
Fri 08:10:07 AM -23.7410 -46.5780 347° North 189 217 4,700 -612 Descending FlightAware ADS-B
Fri 08:10:26 AM -23.7280 -46.5870 328° Northwest 175 201 4,400 -933 Descending FlightAware ADS-B
Fri 08:10:52 AM -23.7100 -46.5990 329° Northwest 160 184 4,000 -904 Descending FlightAware ADS-B
Fri 08:11:39 AM -23.6810 -46.6190 328° Northwest 147 169 3,300 -771 Descending FlightAware ADS-B
Fri 08:12:02 AM -23.6680 -46.6280 328° Northwest 142 163 3,100 -638 Descending FlightAware ADS-B
Fri 08:12:26 AM -23.6560 -46.6360 329° Northwest 144 166 2,800 -750 Descending FlightAware ADS-B
Fri 08:12:50 AM -23.6440 -46.6440 329° Northwest 141 162 2,500 -750 Descending FlightAware ADS-B
Fri 08:13:45 AM -23.6220 -46.6600 326° Northwest 142 163 -2,727 Descending FlightAware ADS-B
Fri 08:14:32 AM -23.6160 -46.6460 65° Northeast 139 160  Level FlightAware ADS-B
Fri 08:15:08 AM -23.6240 -46.6590 236° Southwest 139 160  Level FlightAware ADS-B
Fri 08:15:36 AM -23.6150 -46.6460 53° Northeast 139 160  Level FlightAware ADS-B
Fri 08:16:04 AM -23.6270 -46.6580 222° Southwest 139 160  Level FlightAware ADS-B
Fri 08:16:54 AM -23.6190 -46.6460 54° Northeast 139 160  Level FlightAware ADS-B
Fri 08:17:01 AM -23.6280 -46.6580 231° Southwest 139 160  Level FlightAware ADS-B
Fri 08:19:00 AM -23.6267 -46.6554 61° Northeast  Level Estimated
Fri 08:20:00 AM -23.6267 -46.6554 114° Southeast  Level Estimated
Fri 08:21:00 AM -23.6267 -46.6554 114° Southeast  Level Estimated

Login

Don't have an account? Register now (free) for customized features, flight alerts, and more!